Аэропорт: Алыкель. Норильск

ICAO: UOOO

METAR:
2016/09/05 11:00
UOOO 051100Z 21004G07MPS CAVOK 16/05 Q1020 R19/0///60 NOSIG RMK QFE749
METAR:
2016/09/05 12:21
TAF UOOO 051049Z 0512/0612 21006G11MPS 9999 SCT010CB BKN066 
      TEMPO 0515/0518 2500 -SHRA BR SCT005 BKN007CB 
      BECMG 0518/0520 2000 -SHRA BR BKN005CB OVC066 
      TEMPO 0518/0606 0600 FG VV002 PROB30 
      TEMPO 0518/0606 TSRA